sensor_id;sensor_type;location;lat;lon;timestamp;P1;durP1;ratioP1;P2;durP2;ratioP2
15110;SDS011;7656;51.954;7.998;2023-12-04T00:01:58;12.87;;;7.63;;
15110;SDS011;7656;51.954;7.998;2023-12-04T00:06:20;9.03;;;5.60;;
15110;SDS011;7656;51.954;7.998;2023-12-04T00:10:43;16.30;;;8.43;;
15110;SDS011;7656;51.954;7.998;2023-12-04T00:15:04;15.20;;;8.93;;
15110;SDS011;7656;51.954;7.998;2023-12-04T00:19:26;19.90;;;9.03;;
15110;SDS011;7656;51.954;7.998;2023-12-04T00:23:48;13.53;;;7.37;;
15110;SDS011;7656;51.954;7.998;2023-12-04T00:28:09;13.90;;;7.40;;
15110;SDS011;7656;51.954;7.998;2023-12-04T00:32:30;14.27;;;6.53;;
15110;SDS011;7656;51.954;7.998;2023-12-04T00:36:52;12.83;;;7.70;;
15110;SDS011;7656;51.954;7.998;2023-12-04T00:41:13;13.90;;;7.20;;
15110;SDS011;7656;51.954;7.998;2023-12-04T00:45:35;14.50;;;7.47;;
15110;SDS011;7656;51.954;7.998;2023-12-04T00:49:57;17.23;;;8.87;;
15110;SDS011;7656;51.954;7.998;2023-12-04T00:54:19;14.57;;;6.33;;
15110;SDS011;7656;51.954;7.998;2023-12-04T00:58:40;19.37;;;8.93;;
15110;SDS011;7656;51.954;7.998;2023-12-04T01:03:01;16.20;;;8.83;;
15110;SDS011;7656;51.954;7.998;2023-12-04T01:07:23;12.90;;;7.27;;
15110;SDS011;7656;51.954;7.998;2023-12-04T01:11:45;14.93;;;9.07;;
15110;SDS011;7656;51.954;7.998;2023-12-04T01:16:06;20.57;;;9.43;;
15110;SDS011;7656;51.954;7.998;2023-12-04T01:20:28;17.17;;;8.67;;
15110;SDS011;7656;51.954;7.998;2023-12-04T01:24:50;16.97;;;9.63;;
15110;SDS011;7656;51.954;7.998;2023-12-04T01:29:11;16.60;;;8.03;;
15110;SDS011;7656;51.954;7.998;2023-12-04T01:33:33;15.77;;;8.47;;
15110;SDS011;7656;51.954;7.998;2023-12-04T01:37:54;4.20;;;3.83;;
15110;SDS011;7656;51.954;7.998;2023-12-04T01:42:16;18.90;;;8.53;;
15110;SDS011;7656;51.954;7.998;2023-12-04T01:46:37;13.83;;;7.73;;
15110;SDS011;7656;51.954;7.998;2023-12-04T01:51:00;15.20;;;8.47;;
15110;SDS011;7656;51.954;7.998;2023-12-04T01:55:26;15.70;;;7.70;;
15110;SDS011;7656;51.954;7.998;2023-12-04T01:59:48;6.00;;;4.53;;
15110;SDS011;7656;51.954;7.998;2023-12-04T02:04:10;12.37;;;6.87;;
15110;SDS011;7656;51.954;7.998;2023-12-04T02:08:31;12.80;;;8.17;;
15110;SDS011;7656;51.954;7.998;2023-12-04T02:12:53;9.23;;;4.97;;
15110;SDS011;7656;51.954;7.998;2023-12-04T02:17:15;17.23;;;8.80;;
15110;SDS011;7656;51.954;7.998;2023-12-04T02:21:37;14.13;;;8.30;;
15110;SDS011;7656;51.954;7.998;2023-12-04T02:25:59;13.87;;;8.20;;
15110;SDS011;7656;51.954;7.998;2023-12-04T02:30:30;8.43;;;5.17;;
15110;SDS011;7656;51.954;7.998;2023-12-04T02:34:52;14.07;;;7.97;;
15110;SDS011;7656;51.954;7.998;2023-12-04T02:39:15;15.47;;;8.10;;
15110;SDS011;7656;51.954;7.998;2023-12-04T02:43:37;15.23;;;8.57;;
15110;SDS011;7656;51.954;7.998;2023-12-04T02:47:58;12.80;;;7.10;;
15110;SDS011;7656;51.954;7.998;2023-12-04T02:52:20;14.57;;;8.27;;
15110;SDS011;7656;51.954;7.998;2023-12-04T02:56:41;13.67;;;7.40;;
15110;SDS011;7656;51.954;7.998;2023-12-04T03:01:03;13.80;;;7.93;;
15110;SDS011;7656;51.954;7.998;2023-12-04T03:05:25;12.73;;;7.10;;
15110;SDS011;7656;51.954;7.998;2023-12-04T03:09:46;11.90;;;5.93;;
15110;SDS011;7656;51.954;7.998;2023-12-04T03:14:08;13.60;;;7.13;;
15110;SDS011;7656;51.954;7.998;2023-12-04T03:18:29;11.07;;;6.57;;
15110;SDS011;7656;51.954;7.998;2023-12-04T03:22:51;14.23;;;7.93;;
15110;SDS011;7656;51.954;7.998;2023-12-04T03:27:12;11.03;;;7.07;;
15110;SDS011;7656;51.954;7.998;2023-12-04T03:31:34;14.93;;;7.60;;
15110;SDS011;7656;51.954;7.998;2023-12-04T03:35:58;15.27;;;6.53;;
15110;SDS011;7656;51.954;7.998;2023-12-04T03:40:19;12.27;;;7.03;;
15110;SDS011;7656;51.954;7.998;2023-12-04T03:44:41;11.13;;;5.83;;
15110;SDS011;7656;51.954;7.998;2023-12-04T03:49:03;13.20;;;7.67;;
15110;SDS011;7656;51.954;7.998;2023-12-04T03:53:26;13.37;;;7.70;;
15110;SDS011;7656;51.954;7.998;2023-12-04T03:57:47;13.90;;;7.17;;
15110;SDS011;7656;51.954;7.998;2023-12-04T04:02:09;11.57;;;7.37;;
15110;SDS011;7656;51.954;7.998;2023-12-04T04:06:30;12.57;;;7.23;;
15110;SDS011;7656;51.954;7.998;2023-12-04T04:10:52;14.63;;;7.67;;
15110;SDS011;7656;51.954;7.998;2023-12-04T04:15:14;12.43;;;6.43;;
15110;SDS011;7656;51.954;7.998;2023-12-04T04:19:35;13.83;;;7.73;;
15110;SDS011;7656;51.954;7.998;2023-12-04T04:23:57;9.77;;;6.53;;
15110;SDS011;7656;51.954;7.998;2023-12-04T04:28:18;12.80;;;7.20;;
15110;SDS011;7656;51.954;7.998;2023-12-04T04:32:40;13.07;;;6.50;;
15110;SDS011;7656;51.954;7.998;2023-12-04T04:37:02;12.20;;;6.80;;
15110;SDS011;7656;51.954;7.998;2023-12-04T04:41:24;12.87;;;6.63;;
15110;SDS011;7656;51.954;7.998;2023-12-04T04:45:45;13.17;;;7.07;;
15110;SDS011;7656;51.954;7.998;2023-12-04T04:50:07;12.60;;;6.97;;
15110;SDS011;7656;51.954;7.998;2023-12-04T04:54:30;12.60;;;7.17;;
15110;SDS011;7656;51.954;7.998;2023-12-04T04:58:53;10.80;;;5.80;;
15110;SDS011;7656;51.954;7.998;2023-12-04T05:03:14;14.67;;;8.47;;
15110;SDS011;7656;51.954;7.998;2023-12-04T05:07:36;13.73;;;7.80;;
15110;SDS011;7656;51.954;7.998;2023-12-04T05:11:57;13.07;;;6.63;;
15110;SDS011;7656;51.954;7.998;2023-12-04T05:16:19;11.93;;;7.37;;
15110;SDS011;7656;51.954;7.998;2023-12-04T05:20:40;13.17;;;8.17;;
15110;SDS011;7656;51.954;7.998;2023-12-04T05:25:02;15.73;;;6.97;;
15110;SDS011;7656;51.954;7.998;2023-12-04T05:29:23;11.47;;;7.03;;
15110;SDS011;7656;51.954;7.998;2023-12-04T05:33:45;15.67;;;7.77;;
15110;SDS011;7656;51.954;7.998;2023-12-04T05:38:06;15.03;;;7.70;;
15110;SDS011;7656;51.954;7.998;2023-12-04T05:42:29;12.50;;;7.07;;
15110;SDS011;7656;51.954;7.998;2023-12-04T05:46:50;14.73;;;6.70;;
15110;SDS011;7656;51.954;7.998;2023-12-04T05:51:12;12.57;;;6.50;;
15110;SDS011;7656;51.954;7.998;2023-12-04T05:55:35;15.03;;;7.60;;
15110;SDS011;7656;51.954;7.998;2023-12-04T05:59:57;13.27;;;7.03;;
15110;SDS011;7656;51.954;7.998;2023-12-04T06:04:18;13.17;;;7.13;;
15110;SDS011;7656;51.954;7.998;2023-12-04T06:08:40;11.57;;;6.57;;
15110;SDS011;7656;51.954;7.998;2023-12-04T06:13:01;9.93;;;5.83;;
15110;SDS011;7656;51.954;7.998;2023-12-04T06:17:23;10.03;;;7.03;;
15110;SDS011;7656;51.954;7.998;2023-12-04T06:21:45;7.90;;;5.23;;
15110;SDS011;7656;51.954;7.998;2023-12-04T06:26:07;10.27;;;6.20;;
15110;SDS011;7656;51.954;7.998;2023-12-04T06:30:29;18.77;;;7.13;;
15110;SDS011;7656;51.954;7.998;2023-12-04T06:34:51;12.67;;;6.97;;
15110;SDS011;7656;51.954;7.998;2023-12-04T06:39:14;10.97;;;6.87;;
15110;SDS011;7656;51.954;7.998;2023-12-04T06:43:37;15.90;;;6.37;;
15110;SDS011;7656;51.954;7.998;2023-12-04T06:47:59;9.60;;;6.10;;
15110;SDS011;7656;51.954;7.998;2023-12-04T06:52:21;11.37;;;6.07;;
15110;SDS011;7656;51.954;7.998;2023-12-04T06:56:42;11.53;;;6.37;;
15110;SDS011;7656;51.954;7.998;2023-12-04T07:01:04;11.13;;;5.90;;
15110;SDS011;7656;51.954;7.998;2023-12-04T07:05:26;13.07;;;6.33;;
15110;SDS011;7656;51.954;7.998;2023-12-04T07:09:47;10.80;;;6.17;;
15110;SDS011;7656;51.954;7.998;2023-12-04T07:14:09;10.07;;;5.97;;
15110;SDS011;7656;51.954;7.998;2023-12-04T07:18:31;10.30;;;5.87;;
15110;SDS011;7656;51.954;7.998;2023-12-04T07:22:52;10.63;;;6.30;;
15110;SDS011;7656;51.954;7.998;2023-12-04T07:27:13;9.57;;;5.83;;
15110;SDS011;7656;51.954;7.998;2023-12-04T07:31:37;7.73;;;4.77;;
15110;SDS011;7656;51.954;7.998;2023-12-04T07:35:59;12.33;;;6.27;;
15110;SDS011;7656;51.954;7.998;2023-12-04T07:40:20;9.70;;;6.03;;
15110;SDS011;7656;51.954;7.998;2023-12-04T07:44:43;10.87;;;6.80;;
15110;SDS011;7656;51.954;7.998;2023-12-04T07:49:04;12.00;;;6.13;;
15110;SDS011;7656;51.954;7.998;2023-12-04T07:53:26;10.27;;;6.20;;
15110;SDS011;7656;51.954;7.998;2023-12-04T07:57:48;8.33;;;5.13;;
15110;SDS011;7656;51.954;7.998;2023-12-04T08:02:11;7.13;;;5.43;;
15110;SDS011;7656;51.954;7.998;2023-12-04T08:06:32;9.43;;;5.80;;
15110;SDS011;7656;51.954;7.998;2023-12-04T08:10:54;10.43;;;5.53;;
15110;SDS011;7656;51.954;7.998;2023-12-04T08:15:15;7.97;;;5.73;;
15110;SDS011;7656;51.954;7.998;2023-12-04T08:19:37;10.30;;;5.93;;
15110;SDS011;7656;51.954;7.998;2023-12-04T08:23:59;7.57;;;4.77;;
15110;SDS011;7656;51.954;7.998;2023-12-04T08:28:20;8.50;;;5.13;;
15110;SDS011;7656;51.954;7.998;2023-12-04T08:32:42;9.87;;;5.43;;
15110;SDS011;7656;51.954;7.998;2023-12-04T08:37:04;10.17;;;6.03;;
15110;SDS011;7656;51.954;7.998;2023-12-04T08:41:25;8.00;;;5.30;;
15110;SDS011;7656;51.954;7.998;2023-12-04T08:45:48;9.70;;;5.37;;
15110;SDS011;7656;51.954;7.998;2023-12-04T08:50:10;7.07;;;4.00;;
15110;SDS011;7656;51.954;7.998;2023-12-04T08:54:31;10.37;;;5.83;;
15110;SDS011;7656;51.954;7.998;2023-12-04T08:58:53;9.33;;;5.33;;
15110;SDS011;7656;51.954;7.998;2023-12-04T09:03:14;8.80;;;4.97;;
15110;SDS011;7656;51.954;7.998;2023-12-04T09:07:37;10.40;;;6.17;;
15110;SDS011;7656;51.954;7.998;2023-12-04T09:11:58;9.37;;;5.30;;
15110;SDS011;7656;51.954;7.998;2023-12-04T09:16:19;8.40;;;5.30;;
15110;SDS011;7656;51.954;7.998;2023-12-04T09:20:41;8.90;;;4.63;;
15110;SDS011;7656;51.954;7.998;2023-12-04T09:25:02;5.83;;;3.50;;
15110;SDS011;7656;51.954;7.998;2023-12-04T09:29:25;8.17;;;5.13;;
15110;SDS011;7656;51.954;7.998;2023-12-04T09:33:47;9.90;;;5.83;;
15110;SDS011;7656;51.954;7.998;2023-12-04T09:38:09;10.87;;;5.63;;
15110;SDS011;7656;51.954;7.998;2023-12-04T09:42:30;8.80;;;5.97;;
15110;SDS011;7656;51.954;7.998;2023-12-04T09:46:53;6.70;;;4.83;;
15110;SDS011;7656;51.954;7.998;2023-12-04T09:51:14;9.77;;;5.67;;
15110;SDS011;7656;51.954;7.998;2023-12-04T09:55:37;7.03;;;4.40;;
15110;SDS011;7656;51.954;7.998;2023-12-04T09:59:59;4.03;;;2.63;;
15110;SDS011;7656;51.954;7.998;2023-12-04T10:04:22;7.40;;;4.53;;
15110;SDS011;7656;51.954;7.998;2023-12-04T10:08:45;7.90;;;4.90;;
15110;SDS011;7656;51.954;7.998;2023-12-04T10:13:07;6.23;;;4.53;;
15110;SDS011;7656;51.954;7.998;2023-12-04T10:17:32;7.17;;;4.70;;
15110;SDS011;7656;51.954;7.998;2023-12-04T10:21:58;7.30;;;5.13;;
15110;SDS011;7656;51.954;7.998;2023-12-04T10:26:20;8.57;;;5.00;;
15110;SDS011;7656;51.954;7.998;2023-12-04T10:30:41;7.33;;;4.67;;
15110;SDS011;7656;51.954;7.998;2023-12-04T10:35:05;8.70;;;4.97;;
15110;SDS011;7656;51.954;7.998;2023-12-04T10:39:29;6.67;;;5.13;;
15110;SDS011;7656;51.954;7.998;2023-12-04T10:43:51;8.60;;;4.53;;
15110;SDS011;7656;51.954;7.998;2023-12-04T10:48:13;6.97;;;4.70;;
15110;SDS011;7656;51.954;7.998;2023-12-04T10:52:36;5.37;;;4.47;;
15110;SDS011;7656;51.954;7.998;2023-12-04T10:57:01;6.33;;;4.30;;
15110;SDS011;7656;51.954;7.998;2023-12-04T11:01:24;7.07;;;4.97;;
15110;SDS011;7656;51.954;7.998;2023-12-04T11:05:46;6.57;;;4.70;;
15110;SDS011;7656;51.954;7.998;2023-12-04T11:10:13;5.17;;;3.97;;
15110;SDS011;7656;51.954;7.998;2023-12-04T11:14:37;6.27;;;4.33;;
15110;SDS011;7656;51.954;7.998;2023-12-04T11:23:38;6.63;;;5.13;;
15110;SDS011;7656;51.954;7.998;2023-12-04T11:28:01;8.93;;;4.53;;
15110;SDS011;7656;51.954;7.998;2023-12-04T11:32:24;5.40;;;3.60;;
15110;SDS011;7656;51.954;7.998;2023-12-04T11:36:47;6.00;;;4.67;;
15110;SDS011;7656;51.954;7.998;2023-12-04T11:41:16;6.47;;;4.47;;
15110;SDS011;7656;51.954;7.998;2023-12-04T11:45:41;5.80;;;3.63;;
15110;SDS011;7656;51.954;7.998;2023-12-04T11:50:04;5.53;;;2.90;;
15110;SDS011;7656;51.954;7.998;2023-12-04T11:54:26;7.40;;;4.53;;
15110;SDS011;7656;51.954;7.998;2023-12-04T11:58:48;7.40;;;4.83;;
15110;SDS011;7656;51.954;7.998;2023-12-04T12:03:10;4.97;;;3.60;;
15110;SDS011;7656;51.954;7.998;2023-12-04T12:07:31;6.40;;;4.40;;
15110;SDS011;7656;51.954;7.998;2023-12-04T12:11:53;5.40;;;3.93;;
15110;SDS011;7656;51.954;7.998;2023-12-04T12:16:14;5.63;;;3.50;;
15110;SDS011;7656;51.954;7.998;2023-12-04T12:20:38;5.20;;;4.03;;
15110;SDS011;7656;51.954;7.998;2023-12-04T12:25:00;9.63;;;5.20;;
15110;SDS011;7656;51.954;7.998;2023-12-04T12:29:25;6.17;;;4.07;;
15110;SDS011;7656;51.954;7.998;2023-12-04T12:33:48;6.67;;;4.83;;
15110;SDS011;7656;51.954;7.998;2023-12-04T12:38:10;8.30;;;4.73;;
15110;SDS011;7656;51.954;7.998;2023-12-04T12:42:31;6.87;;;4.37;;
15110;SDS011;7656;51.954;7.998;2023-12-04T12:46:53;7.40;;;4.40;;
15110;SDS011;7656;51.954;7.998;2023-12-04T12:51:15;7.80;;;4.43;;
15110;SDS011;7656;51.954;7.998;2023-12-04T12:55:40;5.53;;;3.60;;
15110;SDS011;7656;51.954;7.998;2023-12-04T13:00:02;7.03;;;4.07;;
15110;SDS011;7656;51.954;7.998;2023-12-04T13:04:26;9.03;;;5.30;;
15110;SDS011;7656;51.954;7.998;2023-12-04T13:08:54;7.87;;;4.40;;
15110;SDS011;7656;51.954;7.998;2023-12-04T13:13:16;5.97;;;3.93;;
15110;SDS011;7656;51.954;7.998;2023-12-04T13:17:37;8.20;;;5.27;;
15110;SDS011;7656;51.954;7.998;2023-12-04T13:21:59;2.90;;;2.70;;
15110;SDS011;7656;51.954;7.998;2023-12-04T13:26:20;7.00;;;4.03;;
15110;SDS011;7656;51.954;7.998;2023-12-04T13:30:42;8.87;;;5.50;;
15110;SDS011;7656;51.954;7.998;2023-12-04T13:35:04;7.00;;;3.80;;
15110;SDS011;7656;51.954;7.998;2023-12-04T13:39:26;7.43;;;4.53;;
15110;SDS011;7656;51.954;7.998;2023-12-04T13:43:56;6.43;;;4.23;;
15110;SDS011;7656;51.954;7.998;2023-12-04T13:48:20;7.90;;;4.07;;
15110;SDS011;7656;51.954;7.998;2023-12-04T13:52:41;7.10;;;4.03;;
15110;SDS011;7656;51.954;7.998;2023-12-04T13:57:03;4.73;;;3.83;;
15110;SDS011;7656;51.954;7.998;2023-12-04T14:01:25;9.00;;;5.17;;
15110;SDS011;7656;51.954;7.998;2023-12-04T14:05:50;6.83;;;4.37;;
15110;SDS011;7656;51.954;7.998;2023-12-04T14:10:11;7.97;;;5.13;;
15110;SDS011;7656;51.954;7.998;2023-12-04T14:14:34;9.57;;;5.00;;
15110;SDS011;7656;51.954;7.998;2023-12-04T14:18:57;7.63;;;4.63;;
15110;SDS011;7656;51.954;7.998;2023-12-04T14:23:19;8.60;;;5.23;;
15110;SDS011;7656;51.954;7.998;2023-12-04T14:27:41;7.53;;;4.93;;
15110;SDS011;7656;51.954;7.998;2023-12-04T14:32:05;9.07;;;5.03;;
15110;SDS011;7656;51.954;7.998;2023-12-04T14:36:26;7.83;;;5.10;;
15110;SDS011;7656;51.954;7.998;2023-12-04T14:40:48;5.97;;;3.63;;
15110;SDS011;7656;51.954;7.998;2023-12-04T14:45:10;8.07;;;4.63;;
15110;SDS011;7656;51.954;7.998;2023-12-04T14:49:32;4.67;;;3.43;;
15110;SDS011;7656;51.954;7.998;2023-12-04T14:53:53;5.57;;;4.17;;
15110;SDS011;7656;51.954;7.998;2023-12-04T14:58:33;6.03;;;3.80;;
15110;SDS011;7656;51.954;7.998;2023-12-04T15:03:04;6.93;;;4.23;;
15110;SDS011;7656;51.954;7.998;2023-12-04T15:07:25;5.23;;;3.50;;
15110;SDS011;7656;51.954;7.998;2023-12-04T15:11:50;4.30;;;3.73;;
15110;SDS011;7656;51.954;7.998;2023-12-04T15:16:31;8.87;;;5.57;;
15110;SDS011;7656;51.954;7.998;2023-12-04T15:21:09;5.37;;;4.13;;
15110;SDS011;7656;51.954;7.998;2023-12-04T15:25:31;6.73;;;4.50;;
15110;SDS011;7656;51.954;7.998;2023-12-04T15:29:53;4.80;;;2.97;;
15110;SDS011;7656;51.954;7.998;2023-12-04T15:34:14;9.20;;;5.27;;
15110;SDS011;7656;51.954;7.998;2023-12-04T15:38:37;7.60;;;4.33;;
15110;SDS011;7656;51.954;7.998;2023-12-04T15:42:58;10.87;;;5.60;;
15110;SDS011;7656;51.954;7.998;2023-12-04T15:47:20;5.90;;;4.03;;
15110;SDS011;7656;51.954;7.998;2023-12-04T15:51:41;7.60;;;4.93;;
15110;SDS011;7656;51.954;7.998;2023-12-04T15:56:03;7.13;;;3.33;;
15110;SDS011;7656;51.954;7.998;2023-12-04T16:00:25;6.17;;;3.13;;
15110;SDS011;7656;51.954;7.998;2023-12-04T16:04:47;7.73;;;4.87;;
15110;SDS011;7656;51.954;7.998;2023-12-04T16:09:09;9.10;;;5.43;;
15110;SDS011;7656;51.954;7.998;2023-12-04T16:13:34;7.07;;;4.17;;
15110;SDS011;7656;51.954;7.998;2023-12-04T16:17:56;9.70;;;5.03;;
15110;SDS011;7656;51.954;7.998;2023-12-04T16:22:17;7.30;;;5.03;;
15110;SDS011;7656;51.954;7.998;2023-12-04T16:26:39;6.47;;;3.63;;
15110;SDS011;7656;51.954;7.998;2023-12-04T16:31:01;10.67;;;5.17;;
15110;SDS011;7656;51.954;7.998;2023-12-04T16:35:22;8.70;;;5.40;;
15110;SDS011;7656;51.954;7.998;2023-12-04T16:39:44;4.60;;;2.80;;
15110;SDS011;7656;51.954;7.998;2023-12-04T16:44:05;9.20;;;4.50;;
15110;SDS011;7656;51.954;7.998;2023-12-04T16:48:27;9.80;;;6.00;;
15110;SDS011;7656;51.954;7.998;2023-12-04T16:52:48;3.07;;;2.67;;
15110;SDS011;7656;51.954;7.998;2023-12-04T16:57:11;3.13;;;2.47;;
15110;SDS011;7656;51.954;7.998;2023-12-04T17:01:33;8.20;;;4.60;;
15110;SDS011;7656;51.954;7.998;2023-12-04T17:05:55;8.00;;;5.10;;
15110;SDS011;7656;51.954;7.998;2023-12-04T17:10:17;5.73;;;4.07;;
15110;SDS011;7656;51.954;7.998;2023-12-04T17:14:39;6.90;;;3.80;;
15110;SDS011;7656;51.954;7.998;2023-12-04T17:19:01;4.97;;;2.83;;
15110;SDS011;7656;51.954;7.998;2023-12-04T17:23:22;8.13;;;5.00;;
15110;SDS011;7656;51.954;7.998;2023-12-04T17:27:45;4.70;;;2.77;;
15110;SDS011;7656;51.954;7.998;2023-12-04T17:32:06;5.27;;;3.33;;
15110;SDS011;7656;51.954;7.998;2023-12-04T17:36:28;8.17;;;5.13;;
15110;SDS011;7656;51.954;7.998;2023-12-04T17:40:49;7.17;;;3.70;;
15110;SDS011;7656;51.954;7.998;2023-12-04T17:45:12;5.67;;;4.17;;
15110;SDS011;7656;51.954;7.998;2023-12-04T17:49:37;6.87;;;4.80;;
15110;SDS011;7656;51.954;7.998;2023-12-04T17:53:58;6.30;;;4.30;;
15110;SDS011;7656;51.954;7.998;2023-12-04T17:58:20;7.10;;;5.10;;
15110;SDS011;7656;51.954;7.998;2023-12-04T18:02:41;8.13;;;4.67;;
15110;SDS011;7656;51.954;7.998;2023-12-04T18:07:06;9.10;;;5.60;;
15110;SDS011;7656;51.954;7.998;2023-12-04T18:11:27;4.77;;;3.47;;
15110;SDS011;7656;51.954;7.998;2023-12-04T18:15:49;4.93;;;2.77;;
15110;SDS011;7656;51.954;7.998;2023-12-04T18:20:11;5.50;;;4.33;;
15110;SDS011;7656;51.954;7.998;2023-12-04T18:24:34;3.17;;;2.87;;
15110;SDS011;7656;51.954;7.998;2023-12-04T18:28:55;5.27;;;3.60;;
15110;SDS011;7656;51.954;7.998;2023-12-04T18:33:17;5.83;;;3.90;;
15110;SDS011;7656;51.954;7.998;2023-12-04T18:37:43;5.03;;;2.63;;
15110;SDS011;7656;51.954;7.998;2023-12-04T18:42:11;3.90;;;3.13;;
15110;SDS011;7656;51.954;7.998;2023-12-04T18:46:32;6.53;;;4.93;;
15110;SDS011;7656;51.954;7.998;2023-12-04T18:50:54;2.73;;;2.03;;
15110;SDS011;7656;51.954;7.998;2023-12-04T18:55:16;9.67;;;5.33;;
15110;SDS011;7656;51.954;7.998;2023-12-04T18:59:38;6.57;;;3.77;;
15110;SDS011;7656;51.954;7.998;2023-12-04T19:03:59;7.53;;;5.03;;
15110;SDS011;7656;51.954;7.998;2023-12-04T19:08:21;6.23;;;4.10;;
15110;SDS011;7656;51.954;7.998;2023-12-04T19:17:19;6.80;;;4.37;;
15110;SDS011;7656;51.954;7.998;2023-12-04T19:21:41;6.00;;;4.40;;
15110;SDS011;7656;51.954;7.998;2023-12-04T19:26:03;11.43;;;5.37;;
15110;SDS011;7656;51.954;7.998;2023-12-04T19:30:25;7.53;;;4.70;;
15110;SDS011;7656;51.954;7.998;2023-12-04T19:34:47;10.03;;;5.17;;
15110;SDS011;7656;51.954;7.998;2023-12-04T19:39:09;9.73;;;5.80;;
15110;SDS011;7656;51.954;7.998;2023-12-04T19:43:30;11.33;;;5.47;;
15110;SDS011;7656;51.954;7.998;2023-12-04T19:47:51;9.37;;;6.13;;
15110;SDS011;7656;51.954;7.998;2023-12-04T19:52:13;9.50;;;5.60;;
15110;SDS011;7656;51.954;7.998;2023-12-04T19:56:34;10.57;;;5.87;;
15110;SDS011;7656;51.954;7.998;2023-12-04T20:00:56;8.30;;;5.17;;
15110;SDS011;7656;51.954;7.998;2023-12-04T20:05:18;10.27;;;6.00;;
15110;SDS011;7656;51.954;7.998;2023-12-04T20:09:39;7.77;;;4.93;;
15110;SDS011;7656;51.954;7.998;2023-12-04T20:14:01;10.33;;;5.80;;
15110;SDS011;7656;51.954;7.998;2023-12-04T20:18:23;7.60;;;5.30;;
15110;SDS011;7656;51.954;7.998;2023-12-04T20:22:45;7.93;;;4.77;;
15110;SDS011;7656;51.954;7.998;2023-12-04T20:27:06;12.23;;;6.27;;
15110;SDS011;7656;51.954;7.998;2023-12-04T20:31:28;11.20;;;6.53;;
15110;SDS011;7656;51.954;7.998;2023-12-04T20:35:50;9.23;;;5.80;;
15110;SDS011;7656;51.954;7.998;2023-12-04T20:40:11;7.90;;;5.43;;
15110;SDS011;7656;51.954;7.998;2023-12-04T20:44:33;8.77;;;5.50;;
15110;SDS011;7656;51.954;7.998;2023-12-04T20:48:57;8.93;;;6.10;;
15110;SDS011;7656;51.954;7.998;2023-12-04T20:53:19;10.43;;;6.27;;
15110;SDS011;7656;51.954;7.998;2023-12-04T20:57:41;8.23;;;5.33;;
15110;SDS011;7656;51.954;7.998;2023-12-04T21:02:02;9.23;;;5.63;;
15110;SDS011;7656;51.954;7.998;2023-12-04T21:06:24;6.53;;;4.60;;
15110;SDS011;7656;51.954;7.998;2023-12-04T21:10:46;11.13;;;6.00;;
15110;SDS011;7656;51.954;7.998;2023-12-04T21:15:07;8.33;;;5.93;;
15110;SDS011;7656;51.954;7.998;2023-12-04T21:19:29;9.10;;;5.40;;
15110;SDS011;7656;51.954;7.998;2023-12-04T21:23:50;8.33;;;5.43;;
15110;SDS011;7656;51.954;7.998;2023-12-04T21:28:12;6.97;;;4.67;;
15110;SDS011;7656;51.954;7.998;2023-12-04T21:32:33;5.43;;;3.77;;
15110;SDS011;7656;51.954;7.998;2023-12-04T21:36:55;3.57;;;3.23;;
15110;SDS011;7656;51.954;7.998;2023-12-04T21:41:16;7.60;;;5.20;;
15110;SDS011;7656;51.954;7.998;2023-12-04T21:45:38;7.00;;;4.23;;
15110;SDS011;7656;51.954;7.998;2023-12-04T21:49:59;10.20;;;4.90;;
15110;SDS011;7656;51.954;7.998;2023-12-04T21:54:21;6.17;;;4.33;;
15110;SDS011;7656;51.954;7.998;2023-12-04T21:58:43;3.77;;;3.00;;
15110;SDS011;7656;51.954;7.998;2023-12-04T22:03:23;5.53;;;4.27;;
15110;SDS011;7656;51.954;7.998;2023-12-04T22:07:44;7.77;;;5.03;;
15110;SDS011;7656;51.954;7.998;2023-12-04T22:12:06;8.77;;;5.70;;
15110;SDS011;7656;51.954;7.998;2023-12-04T22:16:28;8.20;;;5.80;;
15110;SDS011;7656;51.954;7.998;2023-12-04T22:20:49;7.77;;;5.53;;
15110;SDS011;7656;51.954;7.998;2023-12-04T22:25:11;9.20;;;5.57;;
15110;SDS011;7656;51.954;7.998;2023-12-04T22:29:34;3.43;;;3.00;;
15110;SDS011;7656;51.954;7.998;2023-12-04T22:33:56;8.43;;;5.73;;
15110;SDS011;7656;51.954;7.998;2023-12-04T22:38:17;7.33;;;5.20;;
15110;SDS011;7656;51.954;7.998;2023-12-04T22:42:39;8.33;;;4.40;;
15110;SDS011;7656;51.954;7.998;2023-12-04T22:47:01;7.10;;;3.17;;
15110;SDS011;7656;51.954;7.998;2023-12-04T22:51:22;6.90;;;5.03;;
15110;SDS011;7656;51.954;7.998;2023-12-04T22:55:44;6.43;;;5.07;;
15110;SDS011;7656;51.954;7.998;2023-12-04T23:00:06;8.30;;;5.00;;
15110;SDS011;7656;51.954;7.998;2023-12-04T23:04:32;8.77;;;5.27;;
15110;SDS011;7656;51.954;7.998;2023-12-04T23:08:53;7.97;;;5.13;;
15110;SDS011;7656;51.954;7.998;2023-12-04T23:13:14;7.70;;;5.33;;
15110;SDS011;7656;51.954;7.998;2023-12-04T23:17:42;7.17;;;4.77;;
15110;SDS011;7656;51.954;7.998;2023-12-04T23:22:04;7.43;;;5.13;;
15110;SDS011;7656;51.954;7.998;2023-12-04T23:26:26;8.07;;;4.73;;
15110;SDS011;7656;51.954;7.998;2023-12-04T23:30:48;7.13;;;5.10;;
15110;SDS011;7656;51.954;7.998;2023-12-04T23:35:09;6.70;;;4.10;;
15110;SDS011;7656;51.954;7.998;2023-12-04T23:39:31;6.90;;;5.00;;
15110;SDS011;7656;51.954;7.998;2023-12-04T23:43:53;7.33;;;4.80;;
15110;SDS011;7656;51.954;7.998;2023-12-04T23:48:14;9.03;;;5.43;;
15110;SDS011;7656;51.954;7.998;2023-12-04T23:52:36;7.87;;;4.80;;
15110;SDS011;7656;51.954;7.998;2023-12-04T23:56:57;5.33;;;3.93;;
